sensor_id;sensor_type;location;lat;lon;timestamp;temperature;humidity
55313;DHT22;46892;45.668;11.756;2024-02-14T00:02:21;6.00;80.80
55313;DHT22;46892;45.668;11.756;2024-02-14T00:04:47;6.30;80.70
55313;DHT22;46892;45.668;11.756;2024-02-14T00:07:13;6.30;80.40
55313;DHT22;46892;45.668;11.756;2024-02-14T00:09:40;6.20;80.00
55313;DHT22;46892;45.668;11.756;2024-02-14T00:12:06;6.20;79.90
55313;DHT22;46892;45.668;11.756;2024-02-14T00:14:32;6.20;79.60
55313;DHT22;46892;45.668;11.756;2024-02-14T00:16:57;6.10;79.40
55313;DHT22;46892;45.668;11.756;2024-02-14T00:19:24;6.10;80.60
55313;DHT22;46892;45.668;11.756;2024-02-14T00:21:50;6.30;81.50
55313;DHT22;46892;45.668;11.756;2024-02-14T00:24:16;6.20;81.40
55313;DHT22;46892;45.668;11.756;2024-02-14T00:26:43;6.20;80.90
55313;DHT22;46892;45.668;11.756;2024-02-14T00:29:09;6.10;78.40
55313;DHT22;46892;45.668;11.756;2024-02-14T00:31:34;6.10;78.10
55313;DHT22;46892;45.668;11.756;2024-02-14T00:34:00;6.20;77.10
55313;DHT22;46892;45.668;11.756;2024-02-14T00:36:26;6.30;77.20
55313;DHT22;46892;45.668;11.756;2024-02-14T00:38:51;6.30;77.80
55313;DHT22;46892;45.668;11.756;2024-02-14T00:41:17;6.30;77.90
55313;DHT22;46892;45.668;11.756;2024-02-14T00:43:43;6.30;77.80
55313;DHT22;46892;45.668;11.756;2024-02-14T00:46:08;6.10;77.60
55313;DHT22;46892;45.668;11.756;2024-02-14T00:48:34;5.90;77.90
55313;DHT22;46892;45.668;11.756;2024-02-14T00:51:00;5.80;77.60
55313;DHT22;46892;45.668;11.756;2024-02-14T00:53:26;5.90;77.00
55313;DHT22;46892;45.668;11.756;2024-02-14T00:55:51;5.70;76.90
55313;DHT22;46892;45.668;11.756;2024-02-14T00:58:17;5.50;78.10
55313;DHT22;46892;45.668;11.756;2024-02-14T01:00:43;5.40;79.40
55313;DHT22;46892;45.668;11.756;2024-02-14T01:03:09;5.30;80.20
55313;DHT22;46892;45.668;11.756;2024-02-14T01:05:38;5.40;80.20
55313;DHT22;46892;45.668;11.756;2024-02-14T01:08:04;5.40;80.10
55313;DHT22;46892;45.668;11.756;2024-02-14T01:10:30;5.30;79.80
55313;DHT22;46892;45.668;11.756;2024-02-14T01:12:56;5.30;80.20
55313;DHT22;46892;45.668;11.756;2024-02-14T01:15:22;5.30;80.80
55313;DHT22;46892;45.668;11.756;2024-02-14T01:17:48;5.40;80.80
55313;DHT22;46892;45.668;11.756;2024-02-14T01:20:14;5.50;80.90
55313;DHT22;46892;45.668;11.756;2024-02-14T01:22:40;5.40;80.70
55313;DHT22;46892;45.668;11.756;2024-02-14T01:25:06;5.40;81.00
55313;DHT22;46892;45.668;11.756;2024-02-14T01:27:32;5.40;81.20
55313;DHT22;46892;45.668;11.756;2024-02-14T01:29:58;5.40;81.00
55313;DHT22;46892;45.668;11.756;2024-02-14T01:32:24;5.40;81.20
55313;DHT22;46892;45.668;11.756;2024-02-14T01:34:50;5.50;81.00
55313;DHT22;46892;45.668;11.756;2024-02-14T01:37:16;5.50;81.20
55313;DHT22;46892;45.668;11.756;2024-02-14T01:39:42;5.60;80.90
55313;DHT22;46892;45.668;11.756;2024-02-14T01:42:08;5.60;80.40
55313;DHT22;46892;45.668;11.756;2024-02-14T01:44:34;5.50;79.80
55313;DHT22;46892;45.668;11.756;2024-02-14T01:47:00;5.50;80.30
55313;DHT22;46892;45.668;11.756;2024-02-14T01:49:26;5.50;80.60
55313;DHT22;46892;45.668;11.756;2024-02-14T01:51:55;5.60;80.50
55313;DHT22;46892;45.668;11.756;2024-02-14T01:54:23;5.60;80.30
55313;DHT22;46892;45.668;11.756;2024-02-14T01:56:50;5.70;80.00
55313;DHT22;46892;45.668;11.756;2024-02-14T01:59:16;5.70;80.50
55313;DHT22;46892;45.668;11.756;2024-02-14T02:01:42;5.70;79.90
55313;DHT22;46892;45.668;11.756;2024-02-14T02:04:08;5.60;79.40
55313;DHT22;46892;45.668;11.756;2024-02-14T02:06:34;5.60;79.70
55313;DHT22;46892;45.668;11.756;2024-02-14T02:09:00;5.60;79.90
55313;DHT22;46892;45.668;11.756;2024-02-14T02:11:26;5.60;79.90
55313;DHT22;46892;45.668;11.756;2024-02-14T02:13:52;5.60;80.30
55313;DHT22;46892;45.668;11.756;2024-02-14T02:16:18;5.40;79.40
55313;DHT22;46892;45.668;11.756;2024-02-14T02:18:45;5.40;79.80
55313;DHT22;46892;45.668;11.756;2024-02-14T02:21:11;5.40;80.20
55313;DHT22;46892;45.668;11.756;2024-02-14T02:23:38;5.40;80.40
55313;DHT22;46892;45.668;11.756;2024-02-14T02:26:06;5.50;81.60
55313;DHT22;46892;45.668;11.756;2024-02-14T02:28:32;5.60;81.50
55313;DHT22;46892;45.668;11.756;2024-02-14T02:30:58;5.60;80.80
55313;DHT22;46892;45.668;11.756;2024-02-14T02:33:23;5.60;79.90
55313;DHT22;46892;45.668;11.756;2024-02-14T02:35:50;5.40;79.50
55313;DHT22;46892;45.668;11.756;2024-02-14T02:38:16;5.40;79.60
55313;DHT22;46892;45.668;11.756;2024-02-14T02:40:43;5.40;79.50
55313;DHT22;46892;45.668;11.756;2024-02-14T02:43:09;5.40;81.60
55313;DHT22;46892;45.668;11.756;2024-02-14T02:45:35;5.50;81.70
55313;DHT22;46892;45.668;11.756;2024-02-14T02:48:01;5.50;81.10
55313;DHT22;46892;45.668;11.756;2024-02-14T02:50:27;5.40;80.80
55313;DHT22;46892;45.668;11.756;2024-02-14T02:52:54;5.40;80.20
55313;DHT22;46892;45.668;11.756;2024-02-14T02:55:22;5.30;80.20
55313;DHT22;46892;45.668;11.756;2024-02-14T02:57:48;5.30;80.20
55313;DHT22;46892;45.668;11.756;2024-02-14T03:00:15;5.30;80.10
55313;DHT22;46892;45.668;11.756;2024-02-14T03:02:41;5.20;80.20
55313;DHT22;46892;45.668;11.756;2024-02-14T03:05:10;5.20;80.70
55313;DHT22;46892;45.668;11.756;2024-02-14T03:07:46;5.30;81.40
55313;DHT22;46892;45.668;11.756;2024-02-14T03:10:13;5.40;81.80
55313;DHT22;46892;45.668;11.756;2024-02-14T03:12:40;5.30;79.20
55313;DHT22;46892;45.668;11.756;2024-02-14T03:15:06;5.10;80.00
55313;DHT22;46892;45.668;11.756;2024-02-14T03:17:35;5.00;80.30
55313;DHT22;46892;45.668;11.756;2024-02-14T03:20:01;5.00;80.30
55313;DHT22;46892;45.668;11.756;2024-02-14T03:22:27;5.00;80.40
55313;DHT22;46892;45.668;11.756;2024-02-14T03:24:53;5.00;80.70
55313;DHT22;46892;45.668;11.756;2024-02-14T03:27:19;5.00;80.30
55313;DHT22;46892;45.668;11.756;2024-02-14T03:29:45;5.00;80.60
55313;DHT22;46892;45.668;11.756;2024-02-14T03:32:12;4.80;80.70
55313;DHT22;46892;45.668;11.756;2024-02-14T03:34:38;4.80;81.00
55313;DHT22;46892;45.668;11.756;2024-02-14T03:37:04;4.90;81.30
55313;DHT22;46892;45.668;11.756;2024-02-14T03:39:32;4.90;81.50
55313;DHT22;46892;45.668;11.756;2024-02-14T03:41:58;5.00;81.40
55313;DHT22;46892;45.668;11.756;2024-02-14T03:44:26;5.00;81.10
55313;DHT22;46892;45.668;11.756;2024-02-14T03:46:52;5.00;80.90
55313;DHT22;46892;45.668;11.756;2024-02-14T03:49:18;4.80;80.60
55313;DHT22;46892;45.668;11.756;2024-02-14T03:51:45;4.80;81.10
55313;DHT22;46892;45.668;11.756;2024-02-14T03:54:12;4.70;81.10
55313;DHT22;46892;45.668;11.756;2024-02-14T03:56:37;4.70;81.30
55313;DHT22;46892;45.668;11.756;2024-02-14T03:59:03;4.70;81.40
55313;DHT22;46892;45.668;11.756;2024-02-14T04:01:31;4.80;81.30
55313;DHT22;46892;45.668;11.756;2024-02-14T04:03:57;4.80;81.00
55313;DHT22;46892;45.668;11.756;2024-02-14T04:06:22;4.70;82.00
55313;DHT22;46892;45.668;11.756;2024-02-14T04:08:48;4.70;82.00
55313;DHT22;46892;45.668;11.756;2024-02-14T04:11:14;4.70;81.60
55313;DHT22;46892;45.668;11.756;2024-02-14T04:13:40;4.60;82.00
55313;DHT22;46892;45.668;11.756;2024-02-14T04:16:06;4.70;82.20
55313;DHT22;46892;45.668;11.756;2024-02-14T04:18:32;4.80;81.70
55313;DHT22;46892;45.668;11.756;2024-02-14T04:20:58;4.80;80.50
55313;DHT22;46892;45.668;11.756;2024-02-14T04:23:23;4.60;79.70
55313;DHT22;46892;45.668;11.756;2024-02-14T04:25:50;4.30;81.00
55313;DHT22;46892;45.668;11.756;2024-02-14T04:28:16;4.10;82.60
55313;DHT22;46892;45.668;11.756;2024-02-14T04:30:42;4.00;83.10
55313;DHT22;46892;45.668;11.756;2024-02-14T04:33:08;4.10;83.30
55313;DHT22;46892;45.668;11.756;2024-02-14T04:35:35;4.30;82.80
55313;DHT22;46892;45.668;11.756;2024-02-14T04:38:00;4.30;81.00
55313;DHT22;46892;45.668;11.756;2024-02-14T04:40:26;4.20;81.20
55313;DHT22;46892;45.668;11.756;2024-02-14T04:42:52;4.00;81.50
55313;DHT22;46892;45.668;11.756;2024-02-14T04:45:18;4.00;82.10
55313;DHT22;46892;45.668;11.756;2024-02-14T04:47:44;4.00;82.40
55313;DHT22;46892;45.668;11.756;2024-02-14T04:50:10;4.00;82.90
55313;DHT22;46892;45.668;11.756;2024-02-14T04:52:36;4.20;82.80
55313;DHT22;46892;45.668;11.756;2024-02-14T04:55:02;4.10;82.50
55313;DHT22;46892;45.668;11.756;2024-02-14T04:57:29;4.20;82.10
55313;DHT22;46892;45.668;11.756;2024-02-14T04:59:54;4.10;81.80
55313;DHT22;46892;45.668;11.756;2024-02-14T05:02:20;4.10;82.00
55313;DHT22;46892;45.668;11.756;2024-02-14T05:04:46;4.10;81.20
55313;DHT22;46892;45.668;11.756;2024-02-14T05:07:12;4.10;81.10
55313;DHT22;46892;45.668;11.756;2024-02-14T05:09:38;4.00;80.90
55313;DHT22;46892;45.668;11.756;2024-02-14T05:12:03;4.10;81.10
55313;DHT22;46892;45.668;11.756;2024-02-14T05:14:29;4.20;80.90
55313;DHT22;46892;45.668;11.756;2024-02-14T05:16:56;4.30;81.80
55313;DHT22;46892;45.668;11.756;2024-02-14T05:19:22;4.30;81.70
55313;DHT22;46892;45.668;11.756;2024-02-14T05:21:48;4.30;81.00
55313;DHT22;46892;45.668;11.756;2024-02-14T05:24:14;4.40;80.50
55313;DHT22;46892;45.668;11.756;2024-02-14T05:26:40;4.50;79.70
55313;DHT22;46892;45.668;11.756;2024-02-14T05:29:05;4.60;79.40
55313;DHT22;46892;45.668;11.756;2024-02-14T05:31:43;4.60;79.60
55313;DHT22;46892;45.668;11.756;2024-02-14T05:34:10;4.50;79.20
55313;DHT22;46892;45.668;11.756;2024-02-14T05:36:35;4.50;79.80
55313;DHT22;46892;45.668;11.756;2024-02-14T05:39:02;4.40;79.50
55313;DHT22;46892;45.668;11.756;2024-02-14T05:41:28;4.50;79.40
55313;DHT22;46892;45.668;11.756;2024-02-14T05:43:54;4.50;78.60
55313;DHT22;46892;45.668;11.756;2024-02-14T05:46:20;4.70;76.90
55313;DHT22;46892;45.668;11.756;2024-02-14T05:48:46;4.80;75.70
55313;DHT22;46892;45.668;11.756;2024-02-14T05:51:12;5.00;75.30
55313;DHT22;46892;45.668;11.756;2024-02-14T05:53:38;5.10;75.90
55313;DHT22;46892;45.668;11.756;2024-02-14T05:56:04;4.90;76.60
55313;DHT22;46892;45.668;11.756;2024-02-14T05:58:29;4.60;75.50
55313;DHT22;46892;45.668;11.756;2024-02-14T06:00:55;4.30;76.80
55313;DHT22;46892;45.668;11.756;2024-02-14T06:03:22;4.20;77.90
55313;DHT22;46892;45.668;11.756;2024-02-14T06:05:47;4.20;78.60
55313;DHT22;46892;45.668;11.756;2024-02-14T06:08:13;4.10;78.90
55313;DHT22;46892;45.668;11.756;2024-02-14T06:10:39;4.10;79.60
55313;DHT22;46892;45.668;11.756;2024-02-14T06:13:05;4.10;79.30
55313;DHT22;46892;45.668;11.756;2024-02-14T06:15:31;4.10;79.40
55313;DHT22;46892;45.668;11.756;2024-02-14T06:17:57;4.10;79.30
55313;DHT22;46892;45.668;11.756;2024-02-14T06:20:23;4.10;79.40
55313;DHT22;46892;45.668;11.756;2024-02-14T06:22:48;4.00;79.40
55313;DHT22;46892;45.668;11.756;2024-02-14T06:25:14;4.10;78.60
55313;DHT22;46892;45.668;11.756;2024-02-14T06:27:41;4.30;77.10
55313;DHT22;46892;45.668;11.756;2024-02-14T06:30:09;4.50;76.20
55313;DHT22;46892;45.668;11.756;2024-02-14T06:32:37;4.70;74.80
55313;DHT22;46892;45.668;11.756;2024-02-14T06:35:03;5.00;74.10
55313;DHT22;46892;45.668;11.756;2024-02-14T06:37:29;5.20;73.70
55313;DHT22;46892;45.668;11.756;2024-02-14T06:39:55;5.40;72.70
55313;DHT22;46892;45.668;11.756;2024-02-14T06:42:20;5.50;72.30
55313;DHT22;46892;45.668;11.756;2024-02-14T06:44:46;5.60;71.30
55313;DHT22;46892;45.668;11.756;2024-02-14T06:47:12;5.80;71.50
55313;DHT22;46892;45.668;11.756;2024-02-14T06:49:38;5.90;70.10
55313;DHT22;46892;45.668;11.756;2024-02-14T06:52:05;6.00;69.20
55313;DHT22;46892;45.668;11.756;2024-02-14T06:54:31;6.30;68.20
55313;DHT22;46892;45.668;11.756;2024-02-14T06:56:57;6.30;68.00
55313;DHT22;46892;45.668;11.756;2024-02-14T06:59:23;6.50;68.50
55313;DHT22;46892;45.668;11.756;2024-02-14T07:01:48;6.60;68.90
55313;DHT22;46892;45.668;11.756;2024-02-14T07:04:15;6.80;67.60
55313;DHT22;46892;45.668;11.756;2024-02-14T07:06:41;6.90;67.90
55313;DHT22;46892;45.668;11.756;2024-02-14T07:09:07;7.10;67.60
55313;DHT22;46892;45.668;11.756;2024-02-14T07:11:32;7.30;67.10
55313;DHT22;46892;45.668;11.756;2024-02-14T07:13:58;7.50;66.90
55313;DHT22;46892;45.668;11.756;2024-02-14T07:16:24;7.70;67.30
55313;DHT22;46892;45.668;11.756;2024-02-14T07:18:50;7.80;67.60
55313;DHT22;46892;45.668;11.756;2024-02-14T07:21:15;7.90;66.60
55313;DHT22;46892;45.668;11.756;2024-02-14T07:23:42;8.00;66.50
55313;DHT22;46892;45.668;11.756;2024-02-14T07:26:08;8.10;67.30
55313;DHT22;46892;45.668;11.756;2024-02-14T07:28:34;8.50;68.30
55313;DHT22;46892;45.668;11.756;2024-02-14T07:30:59;8.70;66.70
55313;DHT22;46892;45.668;11.756;2024-02-14T07:33:25;8.70;65.70
55313;DHT22;46892;45.668;11.756;2024-02-14T07:35:51;8.80;64.50
55313;DHT22;46892;45.668;11.756;2024-02-14T07:38:16;8.70;63.90
55313;DHT22;46892;45.668;11.756;2024-02-14T07:40:43;8.70;63.70
55313;DHT22;46892;45.668;11.756;2024-02-14T07:43:08;8.60;62.90
55313;DHT22;46892;45.668;11.756;2024-02-14T07:45:34;8.60;63.40
55313;DHT22;46892;45.668;11.756;2024-02-14T07:48:00;8.60;64.00
55313;DHT22;46892;45.668;11.756;2024-02-14T07:50:26;8.70;64.60
55313;DHT22;46892;45.668;11.756;2024-02-14T07:52:54;8.80;65.10
55313;DHT22;46892;45.668;11.756;2024-02-14T07:55:20;8.90;65.90
55313;DHT22;46892;45.668;11.756;2024-02-14T07:57:45;9.00;66.60
55313;DHT22;46892;45.668;11.756;2024-02-14T08:00:11;9.10;65.30
55313;DHT22;46892;45.668;11.756;2024-02-14T08:02:38;9.20;65.40
55313;DHT22;46892;45.668;11.756;2024-02-14T08:05:03;9.30;64.80
55313;DHT22;46892;45.668;11.756;2024-02-14T08:07:34;9.40;67.00
55313;DHT22;46892;45.668;11.756;2024-02-14T08:10:00;10.00;71.10
55313;DHT22;46892;45.668;11.756;2024-02-14T08:12:25;10.30;66.70
55313;DHT22;46892;45.668;11.756;2024-02-14T08:14:52;10.30;63.00
55313;DHT22;46892;45.668;11.756;2024-02-14T08:17:17;10.40;62.60
55313;DHT22;46892;45.668;11.756;2024-02-14T08:19:43;10.30;61.60
55313;DHT22;46892;45.668;11.756;2024-02-14T08:22:09;10.40;65.50
55313;DHT22;46892;45.668;11.756;2024-02-14T08:24:35;10.60;63.00
55313;DHT22;46892;45.668;11.756;2024-02-14T08:27:00;11.10;66.70
55313;DHT22;46892;45.668;11.756;2024-02-14T08:29:26;11.20;64.10
55313;DHT22;46892;45.668;11.756;2024-02-14T08:31:52;11.70;63.40
55313;DHT22;46892;45.668;11.756;2024-02-14T08:34:18;11.90;57.90
55313;DHT22;46892;45.668;11.756;2024-02-14T08:36:44;12.00;56.90
55313;DHT22;46892;45.668;11.756;2024-02-14T08:39:10;12.10;58.00
55313;DHT22;46892;45.668;11.756;2024-02-14T08:41:40;12.00;56.80
55313;DHT22;46892;45.668;11.756;2024-02-14T08:44:06;11.90;53.80
55313;DHT22;46892;45.668;11.756;2024-02-14T08:46:32;11.70;53.30
55313;DHT22;46892;45.668;11.756;2024-02-14T08:49:00;11.50;53.10
55313;DHT22;46892;45.668;11.756;2024-02-14T08:51:28;11.30;54.80
55313;DHT22;46892;45.668;11.756;2024-02-14T08:53:54;11.30;55.70
55313;DHT22;46892;45.668;11.756;2024-02-14T08:56:22;11.50;57.70
55313;DHT22;46892;45.668;11.756;2024-02-14T08:58:49;11.50;55.50
55313;DHT22;46892;45.668;11.756;2024-02-14T09:01:14;11.50;53.20
55313;DHT22;46892;45.668;11.756;2024-02-14T09:03:44;11.50;56.40
55313;DHT22;46892;45.668;11.756;2024-02-14T09:06:16;11.80;57.80
55313;DHT22;46892;45.668;11.756;2024-02-14T09:08:45;12.00;55.90
55313;DHT22;46892;45.668;11.756;2024-02-14T09:11:11;12.20;56.50
55313;DHT22;46892;45.668;11.756;2024-02-14T09:13:38;12.10;51.90
55313;DHT22;46892;45.668;11.756;2024-02-14T09:16:07;12.20;60.00
55313;DHT22;46892;45.668;11.756;2024-02-14T09:18:33;12.30;52.60
55313;DHT22;46892;45.668;11.756;2024-02-14T09:20:59;12.40;52.30
55313;DHT22;46892;45.668;11.756;2024-02-14T09:23:26;12.60;50.40
55313;DHT22;46892;45.668;11.756;2024-02-14T09:25:52;12.70;53.60
55313;DHT22;46892;45.668;11.756;2024-02-14T09:28:19;12.80;48.70
55313;DHT22;46892;45.668;11.756;2024-02-14T09:30:45;12.70;48.40
55313;DHT22;46892;45.668;11.756;2024-02-14T09:33:11;12.70;49.80
55313;DHT22;46892;45.668;11.756;2024-02-14T09:35:38;12.70;50.80
55313;DHT22;46892;45.668;11.756;2024-02-14T09:38:12;12.80;50.40
55313;DHT22;46892;45.668;11.756;2024-02-14T09:40:40;12.80;52.20
55313;DHT22;46892;45.668;11.756;2024-02-14T09:43:16;12.70;49.50
55313;DHT22;46892;45.668;11.756;2024-02-14T09:45:43;12.70;50.00
55313;DHT22;46892;45.668;11.756;2024-02-14T09:48:10;12.70;49.50
55313;DHT22;46892;45.668;11.756;2024-02-14T09:50:38;12.60;50.20
55313;DHT22;46892;45.668;11.756;2024-02-14T09:53:05;12.60;50.90
55313;DHT22;46892;45.668;11.756;2024-02-14T09:55:32;12.40;51.80
55313;DHT22;46892;45.668;11.756;2024-02-14T09:57:59;12.30;52.50
55313;DHT22;46892;45.668;11.756;2024-02-14T10:00:31;12.30;52.00
55313;DHT22;46892;45.668;11.756;2024-02-14T10:02:57;12.10;50.90
55313;DHT22;46892;45.668;11.756;2024-02-14T10:05:23;12.10;54.30
55313;DHT22;46892;45.668;11.756;2024-02-14T10:07:49;12.20;58.50
55313;DHT22;46892;45.668;11.756;2024-02-14T10:10:14;12.30;54.40
55313;DHT22;46892;45.668;11.756;2024-02-14T10:12:42;12.30;51.80
55313;DHT22;46892;45.668;11.756;2024-02-14T10:15:08;12.30;53.60
55313;DHT22;46892;45.668;11.756;2024-02-14T10:17:34;12.40;51.50
55313;DHT22;46892;45.668;11.756;2024-02-14T10:20:02;12.30;51.40
55313;DHT22;46892;45.668;11.756;2024-02-14T10:22:37;12.40;52.00
55313;DHT22;46892;45.668;11.756;2024-02-14T10:25:04;12.40;51.60
55313;DHT22;46892;45.668;11.756;2024-02-14T10:27:36;12.30;51.00
55313;DHT22;46892;45.668;11.756;2024-02-14T10:30:07;12.30;53.20
55313;DHT22;46892;45.668;11.756;2024-02-14T10:32:38;12.40;53.90
55313;DHT22;46892;45.668;11.756;2024-02-14T10:35:06;12.40;54.30
55313;DHT22;46892;45.668;11.756;2024-02-14T10:37:37;12.50;52.00
55313;DHT22;46892;45.668;11.756;2024-02-14T10:40:03;12.60;50.70
55313;DHT22;46892;45.668;11.756;2024-02-14T10:42:30;12.60;52.30
55313;DHT22;46892;45.668;11.756;2024-02-14T10:44:56;12.50;51.00
55313;DHT22;46892;45.668;11.756;2024-02-14T10:47:25;12.40;52.00
55313;DHT22;46892;45.668;11.756;2024-02-14T10:49:54;12.40;52.30
55313;DHT22;46892;45.668;11.756;2024-02-14T10:52:23;12.50;53.10
55313;DHT22;46892;45.668;11.756;2024-02-14T10:54:56;12.50;50.90
55313;DHT22;46892;45.668;11.756;2024-02-14T10:57:25;12.70;51.60
55313;DHT22;46892;45.668;11.756;2024-02-14T10:59:51;12.70;51.50
55313;DHT22;46892;45.668;11.756;2024-02-14T11:02:19;12.80;52.40
55313;DHT22;46892;45.668;11.756;2024-02-14T11:04:45;12.80;53.70
55313;DHT22;46892;45.668;11.756;2024-02-14T11:07:11;12.80;52.30
55313;DHT22;46892;45.668;11.756;2024-02-14T11:09:39;12.90;50.80
55313;DHT22;46892;45.668;11.756;2024-02-14T11:12:10;12.90;52.10
55313;DHT22;46892;45.668;11.756;2024-02-14T11:14:36;13.00;51.80
55313;DHT22;46892;45.668;11.756;2024-02-14T11:17:04;13.10;51.70
55313;DHT22;46892;45.668;11.756;2024-02-14T11:19:35;13.20;50.80
55313;DHT22;46892;45.668;11.756;2024-02-14T11:22:17;13.20;52.70
55313;DHT22;46892;45.668;11.756;2024-02-14T11:24:48;13.20;50.40
55313;DHT22;46892;45.668;11.756;2024-02-14T11:27:17;13.10;51.30
55313;DHT22;46892;45.668;11.756;2024-02-14T11:29:52;12.90;52.20
55313;DHT22;46892;45.668;11.756;2024-02-14T11:32:18;12.80;52.20
55313;DHT22;46892;45.668;11.756;2024-02-14T11:34:56;12.80;53.60
55313;DHT22;46892;45.668;11.756;2024-02-14T11:37:29;12.90;52.10
55313;DHT22;46892;45.668;11.756;2024-02-14T11:39:56;13.00;52.60
55313;DHT22;46892;45.668;11.756;2024-02-14T11:42:24;13.10;53.00
55313;DHT22;46892;45.668;11.756;2024-02-14T11:44:50;13.10;53.50
55313;DHT22;46892;45.668;11.756;2024-02-14T11:47:16;13.20;51.90
55313;DHT22;46892;45.668;11.756;2024-02-14T11:49:41;13.30;52.20
55313;DHT22;46892;45.668;11.756;2024-02-14T11:52:14;13.20;53.80
55313;DHT22;46892;45.668;11.756;2024-02-14T11:54:45;13.30;53.60
55313;DHT22;46892;45.668;11.756;2024-02-14T11:57:11;13.30;53.20
55313;DHT22;46892;45.668;11.756;2024-02-14T11:59:36;13.30;53.70
55313;DHT22;46892;45.668;11.756;2024-02-14T12:02:03;13.40;55.00
55313;DHT22;46892;45.668;11.756;2024-02-14T12:04:30;13.50;54.10
55313;DHT22;46892;45.668;11.756;2024-02-14T12:06:57;13.50;52.50
55313;DHT22;46892;45.668;11.756;2024-02-14T12:09:23;13.50;52.90
55313;DHT22;46892;45.668;11.756;2024-02-14T12:11:48;13.40;52.40
55313;DHT22;46892;45.668;11.756;2024-02-14T12:14:15;13.30;53.20
55313;DHT22;46892;45.668;11.756;2024-02-14T12:16:44;13.30;55.30
55313;DHT22;46892;45.668;11.756;2024-02-14T12:19:14;13.30;54.70
55313;DHT22;46892;45.668;11.756;2024-02-14T12:21:41;13.50;55.40
55313;DHT22;46892;45.668;11.756;2024-02-14T12:24:08;13.60;55.70
55313;DHT22;46892;45.668;11.756;2024-02-14T12:26:35;13.80;53.50
55313;DHT22;46892;45.668;11.756;2024-02-14T12:29:05;13.80;53.70
55313;DHT22;46892;45.668;11.756;2024-02-14T12:31:32;13.70;52.70
55313;DHT22;46892;45.668;11.756;2024-02-14T12:33:59;13.80;54.10
55313;DHT22;46892;45.668;11.756;2024-02-14T12:36:29;13.70;55.70
55313;DHT22;46892;45.668;11.756;2024-02-14T12:38:55;13.70;54.40
55313;DHT22;46892;45.668;11.756;2024-02-14T12:41:21;13.70;55.50
55313;DHT22;46892;45.668;11.756;2024-02-14T12:43:52;13.70;55.00
55313;DHT22;46892;45.668;11.756;2024-02-14T12:46:18;13.80;55.10
55313;DHT22;46892;45.668;11.756;2024-02-14T12:48:43;13.80;55.80
55313;DHT22;46892;45.668;11.756;2024-02-14T12:51:10;13.80;52.80
55313;DHT22;46892;45.668;11.756;2024-02-14T12:53:36;13.80;53.50
55313;DHT22;46892;45.668;11.756;2024-02-14T12:56:02;13.80;53.50
55313;DHT22;46892;45.668;11.756;2024-02-14T12:58:31;13.80;54.50
55313;DHT22;46892;45.668;11.756;2024-02-14T13:00:57;13.80;54.60
55313;DHT22;46892;45.668;11.756;2024-02-14T13:03:24;13.70;54.70
55313;DHT22;46892;45.668;11.756;2024-02-14T13:05:50;13.70;54.80
55313;DHT22;46892;45.668;11.756;2024-02-14T13:08:18;13.70;56.00
55313;DHT22;46892;45.668;11.756;2024-02-14T13:10:44;13.70;56.30
55313;DHT22;46892;45.668;11.756;2024-02-14T13:13:10;13.70;56.90
55313;DHT22;46892;45.668;11.756;2024-02-14T13:15:36;13.80;55.40
55313;DHT22;46892;45.668;11.756;2024-02-14T13:18:02;13.70;54.30
55313;DHT22;46892;45.668;11.756;2024-02-14T13:20:28;13.70;54.70
55313;DHT22;46892;45.668;11.756;2024-02-14T13:22:55;13.70;55.00
55313;DHT22;46892;45.668;11.756;2024-02-14T13:25:20;13.70;55.40
55313;DHT22;46892;45.668;11.756;2024-02-14T13:27:47;13.70;55.60
55313;DHT22;46892;45.668;11.756;2024-02-14T13:30:13;13.70;54.90
55313;DHT22;46892;45.668;11.756;2024-02-14T13:32:39;13.80;56.20
55313;DHT22;46892;45.668;11.756;2024-02-14T13:35:05;13.80;57.00
55313;DHT22;46892;45.668;11.756;2024-02-14T13:37:33;13.80;56.00
55313;DHT22;46892;45.668;11.756;2024-02-14T13:39:58;13.90;56.40
55313;DHT22;46892;45.668;11.756;2024-02-14T13:42:24;13.90;56.50
55313;DHT22;46892;45.668;11.756;2024-02-14T13:44:51;13.80;57.20
55313;DHT22;46892;45.668;11.756;2024-02-14T13:47:19;13.80;56.50
55313;DHT22;46892;45.668;11.756;2024-02-14T13:49:46;13.80;56.30
55313;DHT22;46892;45.668;11.756;2024-02-14T13:52:11;13.70;56.60
55313;DHT22;46892;45.668;11.756;2024-02-14T13:54:37;13.80;58.30
55313;DHT22;46892;45.668;11.756;2024-02-14T13:57:03;13.80;59.90
55313;DHT22;46892;45.668;11.756;2024-02-14T13:59:29;13.80;59.60
55313;DHT22;46892;45.668;11.756;2024-02-14T14:01:55;13.80;59.60
55313;DHT22;46892;45.668;11.756;2024-02-14T14:04:21;13.80;58.70
55313;DHT22;46892;45.668;11.756;2024-02-14T14:06:47;13.80;58.60
55313;DHT22;46892;45.668;11.756;2024-02-14T14:09:13;13.80;59.30
55313;DHT22;46892;45.668;11.756;2024-02-14T14:11:39;13.80;58.70
55313;DHT22;46892;45.668;11.756;2024-02-14T14:14:07;13.80;57.50
55313;DHT22;46892;45.668;11.756;2024-02-14T14:16:34;13.80;57.60
55313;DHT22;46892;45.668;11.756;2024-02-14T14:19:00;13.80;58.50
55313;DHT22;46892;45.668;11.756;2024-02-14T14:21:26;13.80;55.10
55313;DHT22;46892;45.668;11.756;2024-02-14T14:23:52;13.80;56.90
55313;DHT22;46892;45.668;11.756;2024-02-14T14:26:18;13.90;58.20
55313;DHT22;46892;45.668;11.756;2024-02-14T14:28:45;13.90;58.60
55313;DHT22;46892;45.668;11.756;2024-02-14T14:31:11;13.80;58.70
55313;DHT22;46892;45.668;11.756;2024-02-14T14:33:37;13.80;58.90
55313;DHT22;46892;45.668;11.756;2024-02-14T14:36:06;13.80;58.70
55313;DHT22;46892;45.668;11.756;2024-02-14T14:57:43;13.50;58.70
55313;DHT22;46892;45.668;11.756;2024-02-14T15:00:09;13.50;58.50
55313;DHT22;46892;45.668;11.756;2024-02-14T15:02:40;13.50;59.20
55313;DHT22;46892;45.668;11.756;2024-02-14T15:05:10;13.40;59.10
55313;DHT22;46892;45.668;11.756;2024-02-14T15:07:44;13.40;59.10
55313;DHT22;46892;45.668;11.756;2024-02-14T15:10:10;13.40;59.20
55313;DHT22;46892;45.668;11.756;2024-02-14T15:12:36;13.50;59.30
55313;DHT22;46892;45.668;11.756;2024-02-14T15:15:05;13.50;59.60
55313;DHT22;46892;45.668;11.756;2024-02-14T15:17:32;13.50;60.20
55313;DHT22;46892;45.668;11.756;2024-02-14T15:19:57;13.50;59.50
55313;DHT22;46892;45.668;11.756;2024-02-14T15:22:23;13.70;58.70
55313;DHT22;46892;45.668;11.756;2024-02-14T15:24:50;13.70;58.50
55313;DHT22;46892;45.668;11.756;2024-02-14T15:27:17;13.60;60.30
55313;DHT22;46892;45.668;11.756;2024-02-14T15:29:51;13.60;59.90
55313;DHT22;46892;45.668;11.756;2024-02-14T15:32:35;13.50;59.20
55313;DHT22;46892;45.668;11.756;2024-02-14T15:35:20;13.50;59.10
55313;DHT22;46892;45.668;11.756;2024-02-14T15:37:46;13.50;59.10
55313;DHT22;46892;45.668;11.756;2024-02-14T15:40:15;13.50;59.00
55313;DHT22;46892;45.668;11.756;2024-02-14T15:42:42;13.50;59.00